createdAt,value
2023-05-06T00:01:58.332Z,0.90
2023-05-06T00:04:25.087Z,0.90
2023-05-06T00:06:52.857Z,0.80
2023-05-06T00:09:19.803Z,0.80
2023-05-06T00:11:47.580Z,0.80
2023-05-06T00:14:14.288Z,0.90
2023-05-06T00:16:41.099Z,0.80
2023-05-06T00:19:07.905Z,0.90
2023-05-06T00:21:34.618Z,0.90
2023-05-06T00:24:01.352Z,0.80
2023-05-06T00:26:28.127Z,1.00
2023-05-06T00:28:54.839Z,0.80
2023-05-06T00:31:21.624Z,0.90
2023-05-06T00:33:48.363Z,0.90
2023-05-06T00:36:15.250Z,0.70
2023-05-06T00:38:42.033Z,0.60
2023-05-06T00:41:08.716Z,0.50
2023-05-06T00:43:35.509Z,0.50
2023-05-06T00:46:02.288Z,0.50
2023-05-06T00:48:29.154Z,0.60
2023-05-06T00:50:55.852Z,0.50
2023-05-06T00:53:22.706Z,0.50
2023-05-06T00:55:49.850Z,0.60
2023-05-06T00:58:17.276Z,0.40
2023-05-06T01:00:44.707Z,0.40
2023-05-06T01:03:11.642Z,0.50
2023-05-06T01:05:57.316Z,0.40
2023-05-06T01:08:34.518Z,0.30
2023-05-06T01:11:16.864Z,0.40
2023-05-06T01:13:43.541Z,0.40
2023-05-06T01:16:12.706Z,0.30
2023-05-06T01:18:40.414Z,0.10
2023-05-06T01:21:07.789Z,0.30
2023-05-06T01:23:50.180Z,0.00
2023-05-06T01:26:16.845Z,0.40
2023-05-06T01:28:43.495Z,0.30
2023-05-06T01:31:12.916Z,0.20
2023-05-06T01:33:39.631Z,0.40
2023-05-06T01:36:10.076Z,0.10
2023-05-06T01:38:39.512Z,0.20
2023-05-06T01:41:06.467Z,0.10
2023-05-06T01:43:37.705Z,0.00
2023-05-06T01:46:04.707Z,0.00
2023-05-06T01:48:33.780Z,-0.10
2023-05-06T01:51:00.618Z,0.00
2023-05-06T01:53:27.298Z,-0.10
2023-05-06T01:55:54.047Z,0.00
2023-05-06T01:58:20.817Z,0.00
2023-05-06T02:00:47.569Z,0.00
2023-05-06T02:03:14.555Z,0.00
2023-05-06T02:05:41.320Z,0.00
2023-05-06T02:08:08.013Z,-0.10
2023-05-06T02:10:34.754Z,-0.10
2023-05-06T02:13:01.514Z,0.00
2023-05-06T02:15:28.339Z,-0.10
2023-05-06T02:17:55.049Z,-0.10
2023-05-06T02:20:21.764Z,0.10
2023-05-06T02:22:48.488Z,0.00
2023-05-06T02:25:15.298Z,-0.10
2023-05-06T02:27:41.995Z,-0.10
2023-05-06T02:30:08.866Z,-0.10
2023-05-06T02:32:36.185Z,0.00
2023-05-06T02:35:03.115Z,0.00
2023-05-06T02:37:29.827Z,0.00
2023-05-06T02:39:56.589Z,0.00
2023-05-06T02:42:23.347Z,0.00
2023-05-06T02:44:50.048Z,0.00
2023-05-06T02:47:16.733Z,0.30
2023-05-06T02:49:43.467Z,0.30
2023-05-06T02:52:10.316Z,0.80
2023-05-06T02:54:36.992Z,0.70
2023-05-06T02:57:03.724Z,0.90
2023-05-06T02:59:30.450Z,1.00
2023-05-06T03:01:57.123Z,1.30
2023-05-06T03:04:23.879Z,1.60
2023-05-06T03:06:50.694Z,1.40
2023-05-06T03:09:17.541Z,1.40
2023-05-06T03:11:44.247Z,1.40
2023-05-06T03:14:11.058Z,1.80
2023-05-06T03:16:37.910Z,2.00
2023-05-06T03:19:04.709Z,2.30
2023-05-06T03:21:32.014Z,2.70
2023-05-06T03:23:58.938Z,3.40
2023-05-06T03:26:25.773Z,3.80
2023-05-06T03:28:52.522Z,4.60
2023-05-06T03:31:19.256Z,5.30
2023-05-06T03:33:45.971Z,5.70
2023-05-06T03:36:15.644Z,5.70
2023-05-06T03:38:42.342Z,6.00
2023-05-06T03:41:09.084Z,5.80
2023-05-06T03:43:36.151Z,6.00
2023-05-06T03:46:03.129Z,6.00
2023-05-06T03:48:29.908Z,5.90
2023-05-06T03:50:56.701Z,5.70
2023-05-06T03:53:23.458Z,5.60
2023-05-06T03:55:50.428Z,5.70
2023-05-06T03:58:17.116Z,5.60
2023-05-06T04:00:43.946Z,6.10
2023-05-06T04:03:11.139Z,5.90
2023-05-06T04:05:37.919Z,6.10
2023-05-06T04:08:04.776Z,6.00
2023-05-06T04:10:31.544Z,6.50
2023-05-06T04:12:58.362Z,6.50
2023-05-06T04:15:25.136Z,6.70
2023-05-06T04:17:51.864Z,6.70
2023-05-06T04:20:18.638Z,6.90
2023-05-06T04:22:45.348Z,6.90
2023-05-06T04:25:12.400Z,7.30
2023-05-06T04:27:39.362Z,7.40
2023-05-06T04:30:06.417Z,7.60
2023-05-06T04:32:34.128Z,7.40
2023-05-06T04:35:01.050Z,8.10
2023-05-06T04:37:28.448Z,8.40
2023-05-06T04:39:55.948Z,8.40
2023-05-06T04:42:22.764Z,8.30
2023-05-06T04:44:49.419Z,8.70
2023-05-06T04:47:16.218Z,9.00
2023-05-06T04:49:42.978Z,9.00
2023-05-06T04:52:09.655Z,8.90
2023-05-06T04:54:36.706Z,9.00
2023-05-06T04:57:03.502Z,9.50
2023-05-06T04:59:30.221Z,9.70
2023-05-06T05:01:56.911Z,9.40
2023-05-06T05:04:23.583Z,9.50
2023-05-06T05:06:50.375Z,9.30
2023-05-06T05:09:17.053Z,9.50
2023-05-06T05:11:43.903Z,9.50
2023-05-06T05:14:10.712Z,9.90
2023-05-06T05:16:37.603Z,10.10
2023-05-06T05:19:05.300Z,10.60
2023-05-06T05:21:33.617Z,10.50
2023-05-06T05:24:00.379Z,10.30
2023-05-06T05:26:27.089Z,10.50
2023-05-06T05:28:53.804Z,11.00
2023-05-06T05:31:20.599Z,10.70
2023-05-06T05:33:47.480Z,10.10
2023-05-06T05:36:15.428Z,10.20
2023-05-06T05:38:42.426Z,10.00
2023-05-06T05:41:09.261Z,10.00
2023-05-06T05:46:11.550Z,10.40
2023-05-06T05:48:39.804Z,10.70
2023-05-06T05:51:06.556Z,10.90
2023-05-06T05:53:33.253Z,10.70
2023-05-06T05:55:59.955Z,10.90
2023-05-06T05:58:26.661Z,12.10
2023-05-06T06:00:53.443Z,11.80
2023-05-06T06:03:20.206Z,11.20
2023-05-06T06:05:49.275Z,11.50
2023-05-06T06:08:18.314Z,11.20
2023-05-06T06:10:45.026Z,12.00
2023-05-06T06:13:13.749Z,12.10
2023-05-06T06:15:40.620Z,11.80
2023-05-06T06:18:09.039Z,11.50
2023-05-06T06:20:37.407Z,11.70
2023-05-06T06:23:04.129Z,11.80
2023-05-06T06:25:30.907Z,12.30
2023-05-06T06:27:57.633Z,12.60
2023-05-06T06:30:24.444Z,12.80
2023-05-06T06:32:53.060Z,13.30
2023-05-06T06:35:23.559Z,13.40
2023-05-06T06:37:50.331Z,13.10
2023-05-06T06:40:17.115Z,13.50
2023-05-06T06:42:43.853Z,13.70
2023-05-06T06:45:11.240Z,13.40
2023-05-06T06:47:38.142Z,13.30
2023-05-06T06:50:05.114Z,13.60
2023-05-06T06:52:31.890Z,14.30
2023-05-06T06:54:58.597Z,14.70
2023-05-06T06:57:25.332Z,14.80
2023-05-06T06:59:53.697Z,14.50
2023-05-06T07:02:21.062Z,14.60
2023-05-06T07:04:47.862Z,14.80
2023-05-06T07:07:14.642Z,14.20
2023-05-06T07:09:41.630Z,14.50
2023-05-06T07:12:08.310Z,14.00
2023-05-06T07:14:35.018Z,14.20
2023-05-06T07:17:01.812Z,13.80
2023-05-06T07:19:29.105Z,14.00
2023-05-06T07:21:56.856Z,13.90
2023-05-06T07:24:23.701Z,14.20
2023-05-06T07:26:50.526Z,14.60
2023-05-06T07:29:17.280Z,15.00
2023-05-06T07:31:44.056Z,15.00
2023-05-06T07:34:11.123Z,15.10
2023-05-06T07:36:40.824Z,15.60
2023-05-06T07:39:07.891Z,15.40
2023-05-06T07:41:34.940Z,15.00
2023-05-06T07:44:01.600Z,14.40
2023-05-06T07:46:28.365Z,14.80
2023-05-06T07:48:55.252Z,15.10
2023-05-06T07:51:22.316Z,14.60
2023-05-06T07:53:49.008Z,14.80
2023-05-06T07:56:15.820Z,15.20
2023-05-06T07:58:42.487Z,15.50
2023-05-06T08:01:09.206Z,15.60
2023-05-06T08:03:36.181Z,16.30
2023-05-06T08:06:03.051Z,16.60
2023-05-06T08:08:29.789Z,16.70
2023-05-06T08:10:57.879Z,15.90
2023-05-06T08:13:25.340Z,15.90
2023-05-06T08:15:52.463Z,16.50
2023-05-06T08:18:22.960Z,16.60
2023-05-06T08:20:50.208Z,15.80
2023-05-06T08:23:16.897Z,15.80
2023-05-06T08:25:43.708Z,15.40
2023-05-06T08:28:10.587Z,16.10
2023-05-06T08:30:37.520Z,16.20
2023-05-06T08:33:04.315Z,16.20
2023-05-06T08:35:31.080Z,16.10
2023-05-06T08:37:57.762Z,16.60
2023-05-06T08:40:26.434Z,16.70
2023-05-06T08:42:55.176Z,16.90
2023-05-06T08:45:22.665Z,17.40
2023-05-06T08:47:49.508Z,17.50
2023-05-06T08:50:16.665Z,16.70
2023-05-06T08:52:43.616Z,16.40
2023-05-06T08:55:10.541Z,15.70
2023-05-06T08:57:38.006Z,16.30
2023-05-06T09:00:05.059Z,17.00
2023-05-06T09:02:31.988Z,17.40
2023-05-06T09:04:59.738Z,17.50
2023-05-06T09:07:26.822Z,17.50
2023-05-06T09:09:53.639Z,17.10
2023-05-06T09:12:20.683Z,16.00
2023-05-06T09:14:49.878Z,16.30
2023-05-06T09:17:24.279Z,16.90
2023-05-06T09:19:52.595Z,17.00
2023-05-06T09:22:22.353Z,18.00
2023-05-06T09:24:56.555Z,19.10
2023-05-06T09:27:27.060Z,19.10
2023-05-06T09:30:01.655Z,18.30
2023-05-06T09:32:28.881Z,18.20
2023-05-06T09:34:57.854Z,18.70
2023-05-06T09:37:26.284Z,18.70
2023-05-06T09:39:53.946Z,19.10
2023-05-06T09:42:22.309Z,19.10
2023-05-06T09:44:49.093Z,18.90
2023-05-06T09:47:16.192Z,19.60
2023-05-06T09:49:42.932Z,19.50
2023-05-06T09:52:10.085Z,19.00
2023-05-06T09:54:37.122Z,18.80
2023-05-06T09:57:04.741Z,19.40
2023-05-06T09:59:31.602Z,18.70
2023-05-06T10:01:59.278Z,18.80
2023-05-06T10:04:26.927Z,18.10
2023-05-06T10:06:55.368Z,18.90
2023-05-06T10:09:25.181Z,18.90
2023-05-06T10:11:53.523Z,18.20
2023-05-06T10:14:20.427Z,19.30
2023-05-06T10:16:48.567Z,19.80
2023-05-06T10:19:18.678Z,20.60
2023-05-06T10:21:49.796Z,20.20
2023-05-06T10:24:19.264Z,19.20
2023-05-06T10:26:48.601Z,18.70
2023-05-06T10:29:15.323Z,18.70
2023-05-06T10:31:48.337Z,18.70
2023-05-06T10:34:16.456Z,18.60
2023-05-06T10:36:43.604Z,19.60
2023-05-06T10:39:10.881Z,20.40
2023-05-06T10:41:37.886Z,21.20
2023-05-06T10:44:06.129Z,21.40
2023-05-06T10:46:52.817Z,20.90
2023-05-06T10:49:20.889Z,20.90
2023-05-06T10:51:48.645Z,21.60
2023-05-06T10:54:18.155Z,22.50
2023-05-06T10:59:12.769Z,22.80
2023-05-06T11:01:40.691Z,22.40
2023-05-06T11:04:19.209Z,21.30
2023-05-06T11:06:47.871Z,22.30
2023-05-06T11:09:24.660Z,22.60
2023-05-06T11:12:01.885Z,23.30
2023-05-06T11:14:32.540Z,23.30
2023-05-06T11:17:00.670Z,22.60
2023-05-06T11:19:28.415Z,21.50
2023-05-06T11:21:57.328Z,21.70
2023-05-06T11:24:24.056Z,21.30
2023-05-06T11:26:51.314Z,22.00
2023-05-06T11:29:18.474Z,22.70
2023-05-06T11:31:45.823Z,22.80
2023-05-06T11:34:13.803Z,23.00
2023-05-06T11:36:51.699Z,23.20
2023-05-06T11:39:18.708Z,23.30
2023-05-06T11:41:45.516Z,24.00
2023-05-06T11:44:14.334Z,24.50
2023-05-06T11:46:43.815Z,24.60
2023-05-06T11:49:13.569Z,24.40
2023-05-06T11:51:40.389Z,24.10
2023-05-06T11:54:08.722Z,22.80
2023-05-06T11:56:51.922Z,21.50
2023-05-06T11:59:25.602Z,21.40
2023-05-06T12:01:52.639Z,21.40
2023-05-06T12:04:19.382Z,22.00
2023-05-06T12:06:46.216Z,22.80
2023-05-06T12:09:13.295Z,22.90
2023-05-06T12:11:42.559Z,23.10
2023-05-06T12:14:10.601Z,23.20
2023-05-06T12:16:37.734Z,23.40
2023-05-06T12:19:05.810Z,23.40
2023-05-06T12:21:33.194Z,23.10
2023-05-06T12:24:01.089Z,23.20
2023-05-06T12:26:28.144Z,23.50
2023-05-06T12:29:08.219Z,23.50
2023-05-06T12:31:35.344Z,23.40
2023-05-06T12:34:02.502Z,23.50
2023-05-06T12:36:29.425Z,22.90
2023-05-06T12:39:01.122Z,22.30
2023-05-06T12:41:43.839Z,21.90
2023-05-06T12:44:32.721Z,21.30
2023-05-06T12:47:02.970Z,21.30
2023-05-06T12:49:48.017Z,21.60
2023-05-06T12:52:15.205Z,21.60
2023-05-06T12:54:41.972Z,21.10
2023-05-06T12:57:08.765Z,21.30
2023-05-06T12:59:36.254Z,21.10
2023-05-06T13:02:03.761Z,20.40
2023-05-06T13:04:31.036Z,21.00
2023-05-06T13:06:58.066Z,20.80
2023-05-06T13:09:25.066Z,18.60
2023-05-06T13:11:51.747Z,15.50
2023-05-06T13:14:18.588Z,13.40
2023-05-06T13:16:45.713Z,12.10
2023-05-06T13:19:21.152Z,11.20
2023-05-06T13:21:58.745Z,10.80
2023-05-06T13:24:25.596Z,10.30
2023-05-06T13:26:52.353Z,10.20
2023-05-06T13:29:19.089Z,9.80
2023-05-06T13:31:46.107Z,9.80
2023-05-06T13:34:12.862Z,9.80
2023-05-06T13:36:39.610Z,9.90
2023-05-06T13:39:06.328Z,10.00
2023-05-06T13:41:33.064Z,9.70
2023-05-06T13:43:59.946Z,9.50
2023-05-06T13:46:29.670Z,9.40
2023-05-06T13:48:56.419Z,9.50
2023-05-06T13:51:23.942Z,9.40
2023-05-06T13:53:54.741Z,9.50
2023-05-06T13:56:21.691Z,9.50
2023-05-06T13:58:48.541Z,9.50
2023-05-06T14:01:15.337Z,9.30
2023-05-06T14:03:42.189Z,9.20
2023-05-06T14:06:08.970Z,9.10
2023-05-06T14:08:35.720Z,9.20
2023-05-06T14:11:02.459Z,9.20
2023-05-06T14:13:30.698Z,9.20
2023-05-06T14:15:57.578Z,9.30
2023-05-06T14:18:25.995Z,9.20
2023-05-06T14:20:53.564Z,9.20
2023-05-06T14:23:20.325Z,8.90
2023-05-06T14:25:47.160Z,8.90
2023-05-06T14:28:14.442Z,8.70
2023-05-06T14:30:41.697Z,8.70
2023-05-06T14:33:08.892Z,8.70
2023-05-06T14:35:35.820Z,8.90
2023-05-06T14:38:03.234Z,8.90
2023-05-06T14:40:30.295Z,8.90
2023-05-06T14:42:56.999Z,8.60
2023-05-06T14:45:23.779Z,8.60
2023-05-06T14:47:51.696Z,8.80
2023-05-06T14:50:18.696Z,8.70
2023-05-06T14:52:45.689Z,8.50
2023-05-06T14:55:12.760Z,8.60
2023-05-06T14:57:39.760Z,8.40
2023-05-06T15:00:09.915Z,8.30
2023-05-06T15:02:38.240Z,8.30
2023-05-06T15:05:05.242Z,8.30
2023-05-06T15:07:32.021Z,8.30
2023-05-06T15:09:58.917Z,8.30
2023-05-06T15:12:26.208Z,8.20
2023-05-06T15:14:53.017Z,8.30
2023-05-06T15:17:19.818Z,8.40
2023-05-06T15:19:46.764Z,8.40
2023-05-06T15:22:13.452Z,8.40
2023-05-06T15:24:40.541Z,8.30
2023-05-06T15:27:07.284Z,8.40
2023-05-06T15:29:33.949Z,8.30
2023-05-06T15:32:01.032Z,8.30
2023-05-06T15:34:27.836Z,8.20
2023-05-06T15:36:54.590Z,8.30
2023-05-06T15:39:22.120Z,8.20
2023-05-06T15:41:50.720Z,8.20
2023-05-06T15:44:20.821Z,8.20
2023-05-06T15:46:47.860Z,8.10
2023-05-06T15:49:46.819Z,8.20
2023-05-06T15:52:01.611Z,8.10
2023-05-06T15:54:28.773Z,8.20
2023-05-06T15:56:56.480Z,8.10
2023-05-06T15:59:23.307Z,8.10
2023-05-06T16:02:25.496Z,8.00
2023-05-06T16:04:37.129Z,8.00
2023-05-06T16:07:04.035Z,7.90
2023-05-06T16:09:30.934Z,7.90
2023-05-06T16:11:57.620Z,7.90
2023-05-06T16:14:24.334Z,7.80
2023-05-06T16:16:51.011Z,7.90
2023-05-06T16:19:17.891Z,7.90
2023-05-06T16:21:44.604Z,7.90
2023-05-06T16:24:11.437Z,7.80
2023-05-06T16:26:38.247Z,8.00
2023-05-06T16:29:04.992Z,7.80
2023-05-06T16:31:32.244Z,7.70
2023-05-06T16:33:58.978Z,7.80
2023-05-06T16:36:26.894Z,7.80
2023-05-06T16:38:53.613Z,7.70
2023-05-06T16:41:20.754Z,7.80
2023-05-06T16:43:47.520Z,7.80
2023-05-06T16:46:14.662Z,7.70
2023-05-06T16:48:41.505Z,7.70
2023-05-06T16:51:10.307Z,7.70
2023-05-06T16:53:37.008Z,7.50
2023-05-06T16:56:03.889Z,7.50
2023-05-06T16:58:30.849Z,7.60
2023-05-06T17:00:57.664Z,7.60
2023-05-06T17:03:24.540Z,7.60
2023-05-06T17:05:51.564Z,7.40
2023-05-06T17:08:18.832Z,7.20
2023-05-06T17:10:46.144Z,7.30
2023-05-06T17:13:12.885Z,7.30
2023-05-06T17:15:39.629Z,7.20
2023-05-06T17:18:06.399Z,7.10
2023-05-06T17:20:38.030Z,7.00
2023-05-06T17:23:14.980Z,7.00
2023-05-06T17:25:41.714Z,7.00
2023-05-06T17:28:08.459Z,7.10
2023-05-06T17:30:35.242Z,6.90
2023-05-06T17:33:05.586Z,7.00
2023-05-06T17:35:32.442Z,7.00
2023-05-06T17:37:59.597Z,7.00
2023-05-06T17:40:26.304Z,6.80
2023-05-06T17:42:52.984Z,6.90
2023-05-06T17:45:19.707Z,6.90
2023-05-06T17:47:46.767Z,6.80
2023-05-06T17:50:13.649Z,6.70
2023-05-06T17:52:40.410Z,6.80
2023-05-06T17:57:37.862Z,6.70
2023-05-06T18:00:05.260Z,6.50
2023-05-06T18:02:32.118Z,6.60
2023-05-06T18:04:59.169Z,6.40
2023-05-06T18:07:25.880Z,6.50
2023-05-06T18:09:53.166Z,6.50
2023-05-06T18:12:20.057Z,6.40
2023-05-06T18:14:46.986Z,6.30
2023-05-06T18:17:13.820Z,6.30
2023-05-06T18:19:40.593Z,6.30
2023-05-06T18:22:07.254Z,6.20
2023-05-06T18:24:34.692Z,6.10
2023-05-06T18:27:02.306Z,5.90
2023-05-06T18:29:30.330Z,6.20
2023-05-06T18:31:57.380Z,6.10
2023-05-06T18:34:24.165Z,6.00
2023-05-06T18:36:50.906Z,5.90
2023-05-06T18:39:17.610Z,5.90
2023-05-06T18:41:44.567Z,5.90
2023-05-06T18:44:11.868Z,5.80
2023-05-06T18:46:38.708Z,6.00
2023-05-06T18:49:05.860Z,5.80
2023-05-06T18:51:32.674Z,5.90
2023-05-06T18:53:59.394Z,5.70
2023-05-06T18:56:26.223Z,5.70
2023-05-06T18:58:53.025Z,5.70
2023-05-06T19:01:19.775Z,5.50
2023-05-06T19:03:47.864Z,5.80
2023-05-06T19:06:14.864Z,5.70
2023-05-06T19:08:41.768Z,5.60
2023-05-06T19:11:14.088Z,5.70
2023-05-06T19:13:42.123Z,5.50
2023-05-06T19:16:08.884Z,5.60
2023-05-06T19:18:35.720Z,5.70
2023-05-06T19:21:02.684Z,5.40
2023-05-06T19:23:29.410Z,5.50
2023-05-06T19:25:56.297Z,5.40
2023-05-06T19:28:22.990Z,5.50
2023-05-06T19:30:49.776Z,5.40
2023-05-06T19:33:16.622Z,5.40
2023-05-06T19:35:43.416Z,5.30
2023-05-06T19:38:10.769Z,5.40
2023-05-06T19:40:37.478Z,5.30
2023-05-06T19:43:04.225Z,5.20
2023-05-06T19:45:34.180Z,5.30
2023-05-06T19:48:01.251Z,5.20
2023-05-06T19:50:28.408Z,5.20
2023-05-06T19:52:55.119Z,5.30
2023-05-06T19:55:22.223Z,5.00
2023-05-06T19:57:49.620Z,5.20
2023-05-06T20:00:18.331Z,5.10
2023-05-06T20:02:46.104Z,5.10
2023-05-06T20:05:13.261Z,5.10
2023-05-06T20:07:41.310Z,4.80
2023-05-06T20:10:09.987Z,5.00
2023-05-06T20:12:36.882Z,4.90
2023-05-06T20:15:03.787Z,4.90
2023-05-06T20:17:30.695Z,5.00
2023-05-06T20:19:58.589Z,5.00
2023-05-06T20:22:25.557Z,4.70
2023-05-06T20:24:53.208Z,4.80
2023-05-06T20:27:22.643Z,4.80
2023-05-06T20:29:51.597Z,4.90
2023-05-06T20:32:18.399Z,4.80
2023-05-06T20:34:45.081Z,4.80
2023-05-06T20:37:11.972Z,4.80
2023-05-06T20:39:38.792Z,4.70
2023-05-06T20:42:05.693Z,4.50
2023-05-06T20:44:32.431Z,4.60
2023-05-06T20:46:59.167Z,4.60
2023-05-06T20:49:26.036Z,4.60
2023-05-06T20:51:52.841Z,4.50
2023-05-06T20:54:19.563Z,4.60
2023-05-06T20:56:46.360Z,4.50
2023-05-06T20:59:13.089Z,4.40
2023-05-06T21:01:40.034Z,4.50
2023-05-06T21:04:07.289Z,4.30
2023-05-06T21:06:33.983Z,4.30
2023-05-06T21:09:00.786Z,4.30
2023-05-06T21:11:28.900Z,4.30
2023-05-06T21:13:55.783Z,4.30
2023-05-06T21:16:22.559Z,4.20
2023-05-06T21:18:49.349Z,4.30
2023-05-06T21:21:16.152Z,4.30
2023-05-06T21:23:42.937Z,4.00
2023-05-06T21:26:10.862Z,4.20
2023-05-06T21:28:37.777Z,4.20
2023-05-06T21:31:04.617Z,4.20
2023-05-06T21:33:31.331Z,4.10
2023-05-06T21:35:58.023Z,4.20
2023-05-06T21:38:24.866Z,4.20
2023-05-06T21:40:51.569Z,4.10
2023-05-06T21:43:18.386Z,4.00
2023-05-06T21:45:45.121Z,4.10
2023-05-06T21:48:11.918Z,4.00
2023-05-06T21:50:38.862Z,3.90
2023-05-06T21:53:05.601Z,3.90
2023-05-06T21:55:32.382Z,4.10
2023-05-06T21:57:59.056Z,4.00
2023-05-06T22:00:25.933Z,4.00
2023-05-06T22:02:53.201Z,4.30
2023-05-06T22:05:20.235Z,4.40
2023-05-06T22:07:47.027Z,4.30
2023-05-06T22:10:13.745Z,4.30
2023-05-06T22:12:40.562Z,4.40
2023-05-06T22:15:08.952Z,4.30
2023-05-06T22:17:36.596Z,4.60
2023-05-06T22:20:04.349Z,4.30
2023-05-06T22:22:31.612Z,4.30
2023-05-06T22:24:58.343Z,4.40
2023-05-06T22:27:25.075Z,4.40
2023-05-06T22:29:51.885Z,4.30
2023-05-06T22:32:18.728Z,4.40
2023-05-06T22:34:45.721Z,4.20
2023-05-06T22:37:12.507Z,4.30
2023-05-06T22:39:39.338Z,4.10
2023-05-06T22:42:06.152Z,4.30
2023-05-06T22:44:32.822Z,4.20
2023-05-06T22:46:59.647Z,4.20
2023-05-06T22:49:28.833Z,4.00
2023-05-06T22:51:56.312Z,3.90
2023-05-06T22:54:23.513Z,3.80
2023-05-06T22:56:50.528Z,3.80
2023-05-06T22:59:17.307Z,3.70
2023-05-06T23:01:44.051Z,3.50
2023-05-06T23:04:11.229Z,3.70
2023-05-06T23:06:39.945Z,3.70
2023-05-06T23:09:07.948Z,3.50
2023-05-06T23:11:34.935Z,3.70
2023-05-06T23:14:02.003Z,3.40
2023-05-06T23:16:29.609Z,3.60
2023-05-06T23:18:57.006Z,3.60
2023-05-06T23:21:23.804Z,3.50
2023-05-06T23:23:50.593Z,3.30
2023-05-06T23:26:17.350Z,3.40
2023-05-06T23:28:44.164Z,3.40
2023-05-06T23:31:11.092Z,3.10
2023-05-06T23:33:37.843Z,3.40
2023-05-06T23:36:04.561Z,3.40
2023-05-06T23:38:31.266Z,3.30
2023-05-06T23:40:58.008Z,3.30
2023-05-06T23:43:24.731Z,3.40
2023-05-06T23:45:51.706Z,3.40
2023-05-06T23:48:18.488Z,3.40
2023-05-06T23:50:45.257Z,3.30
2023-05-06T23:53:11.961Z,3.50
2023-05-06T23:55:38.724Z,3.30
2023-05-06T23:58:05.389Z,3.20
